createdAt,value
2023-05-05T00:01:49.748Z,98870.03
2023-05-05T00:04:18.048Z,98868.78
2023-05-05T00:06:46.320Z,98872.34
2023-05-05T00:09:14.109Z,98872.31
2023-05-05T00:11:42.011Z,98863.94
2023-05-05T00:14:09.877Z,98861.66
2023-05-05T00:16:38.613Z,98857.03
2023-05-05T00:19:06.691Z,98850.06
2023-05-05T00:21:34.583Z,98849.56
2023-05-05T00:24:02.883Z,98847.38
2023-05-05T00:26:31.005Z,98846.00
2023-05-05T00:28:58.859Z,98845.00
2023-05-05T00:31:27.111Z,98844.38
2023-05-05T00:33:55.036Z,98857.91
2023-05-05T00:36:23.070Z,98849.28
2023-05-05T00:38:50.916Z,98853.41
2023-05-05T00:41:18.838Z,98849.50
2023-05-05T00:43:47.240Z,98845.88
2023-05-05T00:46:27.074Z,98851.00
2023-05-05T00:48:55.473Z,98841.03
2023-05-05T00:51:24.566Z,98840.56
2023-05-05T00:53:53.178Z,98838.63
2023-05-05T00:56:23.310Z,98844.59
2023-05-05T00:58:51.434Z,98847.53
2023-05-05T01:01:19.679Z,98853.50
2023-05-05T01:03:47.689Z,98853.50
2023-05-05T01:06:32.773Z,98849.13
2023-05-05T01:09:09.561Z,98841.16
2023-05-05T01:12:06.528Z,98841.50
2023-05-05T01:14:41.436Z,98842.94
2023-05-05T01:17:18.328Z,98839.09
2023-05-05T01:20:11.989Z,98850.09
2023-05-05T01:22:45.937Z,98843.06
2023-05-05T01:25:50.902Z,98845.41
2023-05-05T01:28:19.830Z,98842.84
2023-05-05T01:31:09.685Z,98839.69
2023-05-05T01:33:53.086Z,98840.31
2023-05-05T01:36:31.587Z,98839.91
2023-05-05T01:39:02.212Z,98840.09
2023-05-05T01:41:39.152Z,98841.78
2023-05-05T01:44:11.002Z,98841.25
2023-05-05T01:46:39.125Z,98844.78
2023-05-05T01:49:10.463Z,98843.38
2023-05-05T01:51:39.732Z,98847.00
2023-05-05T01:54:08.963Z,98854.59
2023-05-05T01:56:40.098Z,98857.22
2023-05-05T01:59:10.017Z,98858.06
2023-05-05T02:01:41.581Z,98851.97
2023-05-05T02:04:11.038Z,98853.81
2023-05-05T02:06:40.311Z,98845.47
2023-05-05T02:09:12.164Z,98853.03
2023-05-05T02:11:41.010Z,98845.78
2023-05-05T02:14:10.858Z,98849.97
2023-05-05T02:16:41.314Z,98853.03
2023-05-05T02:19:10.113Z,98847.69
2023-05-05T02:21:38.176Z,98842.09
2023-05-05T02:24:08.470Z,98837.41
2023-05-05T02:26:40.184Z,98833.38
2023-05-05T02:29:12.972Z,98844.25
2023-05-05T02:31:46.016Z,98845.78
2023-05-05T02:34:22.694Z,98849.06
2023-05-05T02:36:54.482Z,98856.19
2023-05-05T02:39:31.965Z,98847.75
2023-05-05T02:42:05.559Z,98849.53
2023-05-05T02:44:36.420Z,98848.97
2023-05-05T02:47:07.465Z,98840.16
2023-05-05T02:49:35.519Z,98851.91
2023-05-05T02:52:03.583Z,98853.06
2023-05-05T02:54:35.283Z,98851.94
2023-05-05T02:57:11.896Z,98846.59
2023-05-05T02:59:49.684Z,98850.38
2023-05-05T03:02:28.841Z,98854.03
2023-05-05T03:05:04.845Z,98855.34
2023-05-05T03:08:14.229Z,98857.75
2023-05-05T03:11:05.955Z,98863.41
2023-05-05T03:13:38.112Z,98866.78
2023-05-05T03:16:08.787Z,98859.69
2023-05-05T03:18:38.440Z,98870.97
2023-05-05T03:21:10.041Z,98866.97
2023-05-05T03:23:40.857Z,98872.16
2023-05-05T03:26:17.922Z,98871.00
2023-05-05T03:28:46.442Z,98869.09
2023-05-05T03:31:20.267Z,98858.13
2023-05-05T03:33:52.627Z,98875.75
2023-05-05T03:36:23.134Z,98879.25
2023-05-05T03:38:51.644Z,98877.84
2023-05-05T03:41:22.279Z,98880.09
2023-05-05T03:43:51.786Z,98887.22
2023-05-05T03:46:19.936Z,98880.28
2023-05-05T03:48:48.755Z,98878.31
2023-05-05T03:51:16.585Z,98886.56
2023-05-05T03:53:44.671Z,98895.91
2023-05-05T03:56:12.618Z,98893.16
2023-05-05T03:58:40.672Z,98888.16
2023-05-05T04:01:08.972Z,98896.09
2023-05-05T04:03:36.935Z,98891.91
2023-05-05T04:06:05.958Z,98894.03
2023-05-05T04:08:34.558Z,98895.00
2023-05-05T04:11:02.829Z,98896.09
2023-05-05T04:13:31.884Z,98907.84
2023-05-05T04:16:00.283Z,98909.97
2023-05-05T04:18:28.290Z,98909.00
2023-05-05T04:20:56.382Z,98909.13
2023-05-05T04:23:24.343Z,98914.63
2023-05-05T04:25:52.188Z,98915.59
2023-05-05T04:28:21.860Z,98913.63
2023-05-05T04:30:50.808Z,98914.91
2023-05-05T04:33:18.931Z,98926.47
2023-05-05T04:35:48.849Z,98923.78
2023-05-05T04:38:17.044Z,98918.91
2023-05-05T04:40:45.118Z,98934.72
2023-05-05T04:43:13.001Z,98926.16
2023-05-05T04:45:41.164Z,98928.44
2023-05-05T04:48:09.127Z,98932.84
2023-05-05T04:50:37.758Z,98936.78
2023-05-05T04:53:05.692Z,98935.66
2023-05-05T04:55:33.949Z,98936.28
2023-05-05T04:58:01.960Z,98943.78
2023-05-05T05:00:30.114Z,98955.41
2023-05-05T05:02:58.153Z,98955.72
2023-05-05T05:05:26.007Z,98960.06
2023-05-05T05:07:53.840Z,98951.13
2023-05-05T05:10:22.520Z,98959.97
2023-05-05T05:12:50.415Z,98972.75
2023-05-05T05:15:18.290Z,98952.72
2023-05-05T05:17:46.128Z,98961.34
2023-05-05T05:20:13.998Z,98964.03
2023-05-05T05:22:42.208Z,98970.50
2023-05-05T05:25:14.411Z,98963.78
2023-05-05T05:27:42.826Z,98969.75
2023-05-05T05:30:12.431Z,98964.47
2023-05-05T05:32:40.375Z,98964.41
2023-05-05T05:35:08.812Z,98961.72
2023-05-05T05:37:37.087Z,98963.25
2023-05-05T05:40:06.539Z,98969.53
2023-05-05T05:42:35.799Z,98965.13
2023-05-05T05:45:05.053Z,98964.13
2023-05-05T05:47:33.022Z,98963.84
2023-05-05T05:50:01.774Z,98965.41
2023-05-05T05:52:30.813Z,98967.09
2023-05-05T05:54:58.673Z,98973.06
2023-05-05T05:57:27.811Z,98952.78
2023-05-05T05:59:55.722Z,98964.94
2023-05-05T06:02:26.440Z,98955.56
2023-05-05T06:04:55.149Z,98966.38
2023-05-05T06:07:23.024Z,98967.38
2023-05-05T06:09:51.200Z,98966.59
2023-05-05T06:12:19.039Z,98970.13
2023-05-05T06:14:47.000Z,98969.84
2023-05-05T06:17:15.092Z,98971.13
2023-05-05T06:19:43.400Z,98973.41
2023-05-05T06:22:11.534Z,98968.22
2023-05-05T06:24:40.032Z,98969.59
2023-05-05T06:27:08.145Z,98973.34
2023-05-05T06:29:35.978Z,98973.50
2023-05-05T06:32:03.940Z,98964.91
2023-05-05T06:34:31.800Z,98967.28
2023-05-05T06:36:59.777Z,98966.44
2023-05-05T06:39:27.575Z,98970.69
2023-05-05T06:41:56.014Z,98965.63
2023-05-05T06:44:23.855Z,98966.44
2023-05-05T06:46:51.826Z,98969.91
2023-05-05T06:49:20.883Z,98967.97
2023-05-05T06:51:48.754Z,98968.91
2023-05-05T06:54:16.885Z,98968.94
2023-05-05T06:56:44.748Z,98973.84
2023-05-05T06:59:12.847Z,98963.41
2023-05-05T07:01:40.766Z,98964.22
2023-05-05T07:04:08.648Z,98960.13
2023-05-05T07:06:36.521Z,98965.53
2023-05-05T07:09:04.437Z,98959.22
2023-05-05T07:11:32.225Z,98953.09
2023-05-05T07:14:00.036Z,98957.16
2023-05-05T07:16:27.900Z,98954.28
2023-05-05T07:18:55.796Z,98951.19
2023-05-05T07:21:23.670Z,98950.81
2023-05-05T07:23:51.478Z,98948.59
2023-05-05T07:26:19.281Z,98945.13
2023-05-05T07:28:47.101Z,98934.19
2023-05-05T07:31:15.321Z,98940.84
2023-05-05T07:33:44.770Z,98934.19
2023-05-05T07:36:12.622Z,98939.19
2023-05-05T07:38:40.500Z,98941.13
2023-05-05T07:41:08.986Z,98944.34
2023-05-05T07:43:39.263Z,98936.63
2023-05-05T07:46:08.261Z,98943.75
2023-05-05T07:48:36.400Z,98940.16
2023-05-05T07:51:04.233Z,98933.22
2023-05-05T07:53:32.425Z,98937.84
2023-05-05T07:56:00.487Z,98942.81
2023-05-05T07:58:28.327Z,98941.38
2023-05-05T08:00:56.317Z,98932.31
2023-05-05T08:03:24.989Z,98934.72
2023-05-05T08:05:55.437Z,98924.34
2023-05-05T08:08:24.950Z,98929.00
2023-05-05T08:10:53.276Z,98927.94
2023-05-05T08:13:21.347Z,98924.22
2023-05-05T08:15:49.187Z,98921.06
2023-05-05T08:18:17.024Z,98927.41
2023-05-05T08:20:45.008Z,98921.78
2023-05-05T08:23:12.844Z,98934.09
2023-05-05T08:25:40.977Z,98916.97
2023-05-05T08:28:08.756Z,98924.63
2023-05-05T08:30:38.314Z,98917.78
2023-05-05T08:33:06.880Z,98924.00
2023-05-05T08:35:34.800Z,98927.19
2023-05-05T08:38:02.910Z,98932.22
2023-05-05T08:40:36.875Z,98921.81
2023-05-05T08:43:05.562Z,98919.19
2023-05-05T08:45:33.659Z,98922.81
2023-05-05T08:48:03.808Z,98917.34
2023-05-05T08:50:32.740Z,98914.69
2023-05-05T08:53:12.831Z,98913.81
2023-05-05T08:55:54.795Z,98911.75
2023-05-05T08:58:28.796Z,98907.69
2023-05-05T09:00:57.534Z,98905.97
2023-05-05T09:03:26.999Z,98904.59
2023-05-05T09:05:56.014Z,98903.56
2023-05-05T09:08:24.827Z,98902.25
2023-05-05T09:10:52.959Z,98898.81
2023-05-05T09:13:21.408Z,98904.88
2023-05-05T09:15:49.399Z,98905.78
2023-05-05T09:18:17.261Z,98893.50
2023-05-05T09:20:45.119Z,98895.94
2023-05-05T09:23:15.103Z,98885.16
2023-05-05T09:25:48.339Z,98886.88
2023-05-05T09:28:17.791Z,98886.44
2023-05-05T09:30:47.022Z,98878.56
2023-05-05T09:33:29.085Z,98859.94
2023-05-05T09:35:58.442Z,98876.00
2023-05-05T09:38:26.268Z,98869.38
2023-05-05T09:40:54.792Z,98853.50
2023-05-05T09:43:23.943Z,98866.81
2023-05-05T09:45:51.783Z,98872.75
2023-05-05T09:48:27.863Z,98860.06
2023-05-05T09:50:58.070Z,98865.03
2023-05-05T09:53:27.230Z,98856.13
2023-05-05T09:55:56.186Z,98875.03
2023-05-05T09:58:29.510Z,98859.28
2023-05-05T10:00:58.839Z,98866.53
2023-05-05T10:03:26.735Z,98861.56
2023-05-05T10:05:59.727Z,98858.03
2023-05-05T10:08:30.572Z,98856.06
2023-05-05T10:11:01.005Z,98853.34
2023-05-05T10:13:30.065Z,98857.78
2023-05-05T10:15:58.753Z,98851.72
2023-05-05T10:18:28.515Z,98844.81
2023-05-05T10:21:02.197Z,98847.09
2023-05-05T10:23:49.520Z,98844.19
2023-05-05T10:26:20.263Z,98836.91
2023-05-05T10:28:55.550Z,98839.16
2023-05-05T10:31:52.838Z,98831.81
2023-05-05T10:34:38.092Z,98832.88
2023-05-05T10:37:07.291Z,98829.44
2023-05-05T10:39:36.797Z,98821.03
2023-05-05T10:42:04.882Z,98824.56
2023-05-05T10:44:33.344Z,98817.88
2023-05-05T10:47:02.691Z,98809.72
2023-05-05T10:49:41.456Z,98804.78
2023-05-05T10:52:28.624Z,98791.00
2023-05-05T10:55:27.066Z,98796.44
2023-05-05T10:57:54.878Z,98787.38
2023-05-05T11:00:40.949Z,98785.28
2023-05-05T11:03:17.971Z,98778.19
2023-05-05T11:06:09.928Z,98776.63
2023-05-05T11:08:42.628Z,98771.91
2023-05-05T11:11:11.999Z,98777.38
2023-05-05T11:13:41.568Z,98759.59
2023-05-05T11:16:49.916Z,98765.03
2023-05-05T11:19:44.692Z,98763.53
2023-05-05T11:22:12.661Z,98761.06
2023-05-05T11:24:42.247Z,98760.38
2023-05-05T11:27:10.835Z,98765.19
2023-05-05T11:30:07.983Z,98749.63
2023-05-05T11:32:36.216Z,98746.03
2023-05-05T11:35:06.258Z,98754.72
2023-05-05T11:37:35.054Z,98750.81
2023-05-05T11:40:11.008Z,98742.06
2023-05-05T11:42:39.040Z,98741.53
2023-05-05T11:45:21.746Z,98737.97
2023-05-05T11:47:49.675Z,98728.59
2023-05-05T11:50:19.991Z,98730.97
2023-05-05T11:52:47.957Z,98722.56
2023-05-05T11:55:21.154Z,98727.28
2023-05-05T11:57:49.270Z,98719.91
2023-05-05T12:00:17.428Z,98719.28
2023-05-05T12:02:46.035Z,98726.81
2023-05-05T12:05:20.047Z,98719.13
2023-05-05T12:07:57.127Z,98722.19
2023-05-05T12:10:25.280Z,98717.22
2023-05-05T12:12:56.102Z,98718.78
2023-05-05T12:15:32.357Z,98721.31
2023-05-05T12:18:02.583Z,98716.94
2023-05-05T12:20:34.976Z,98716.13
2023-05-05T12:23:04.183Z,98709.31
2023-05-05T12:25:36.874Z,98706.78
2023-05-05T12:28:08.565Z,98706.03
2023-05-05T12:30:37.202Z,98701.81
2023-05-05T12:33:07.313Z,98700.56
2023-05-05T12:35:35.993Z,98693.25
2023-05-05T12:38:04.472Z,98697.91
2023-05-05T12:40:53.773Z,98702.16
2023-05-05T12:43:25.383Z,98688.59
2023-05-05T12:46:00.954Z,98692.22
2023-05-05T12:48:28.964Z,98686.72
2023-05-05T12:51:11.059Z,98680.69
2023-05-05T12:53:38.978Z,98678.34
2023-05-05T12:56:06.978Z,98679.69
2023-05-05T12:58:49.994Z,98682.19
2023-05-05T13:01:17.963Z,98667.97
2023-05-05T13:03:46.045Z,98661.09
2023-05-05T13:06:25.153Z,98660.47
2023-05-05T13:08:53.902Z,98644.81
2023-05-05T13:11:22.100Z,98639.34
2023-05-05T13:13:50.012Z,98648.09
2023-05-05T13:16:17.973Z,98639.06
2023-05-05T13:18:50.311Z,98621.09
2023-05-05T13:21:18.293Z,98635.03
2023-05-05T13:23:46.384Z,98624.44
2023-05-05T13:26:14.467Z,98621.41
2023-05-05T13:28:42.410Z,98621.59
2023-05-05T13:31:10.410Z,98610.22
2023-05-05T13:33:38.268Z,98608.47
2023-05-05T13:36:06.455Z,98598.63
2023-05-05T13:38:34.501Z,98602.13
2023-05-05T13:41:02.713Z,98595.50
2023-05-05T13:43:30.865Z,98590.72
2023-05-05T13:46:08.752Z,98589.84
2023-05-05T13:48:45.039Z,98584.75
2023-05-05T13:51:12.937Z,98586.13
2023-05-05T13:53:43.788Z,98566.22
2023-05-05T13:56:11.813Z,98566.22
2023-05-05T13:58:39.857Z,98564.25
2023-05-05T14:01:07.770Z,98567.00
2023-05-05T14:03:35.848Z,98556.56
2023-05-05T14:06:03.770Z,98552.84
2023-05-05T14:08:31.597Z,98553.41
2023-05-05T14:10:59.724Z,98554.13
2023-05-05T14:13:27.578Z,98548.16
2023-05-05T14:15:55.579Z,98547.91
2023-05-05T14:18:23.455Z,98527.22
2023-05-05T14:20:51.740Z,98539.97
2023-05-05T14:23:19.570Z,98536.78
2023-05-05T14:25:47.708Z,98534.25
2023-05-05T14:28:16.262Z,98532.78
2023-05-05T14:30:44.489Z,98530.94
2023-05-05T14:33:12.341Z,98534.53
2023-05-05T14:35:40.220Z,98523.00
2023-05-05T14:38:08.223Z,98522.53
2023-05-05T14:40:36.099Z,98508.97
2023-05-05T14:43:03.909Z,98529.81
2023-05-05T14:45:32.204Z,98520.09
2023-05-05T14:48:00.232Z,98514.88
2023-05-05T14:50:28.205Z,98518.94
2023-05-05T14:52:56.462Z,98519.66
2023-05-05T14:55:25.037Z,98515.97
2023-05-05T14:57:52.948Z,98519.31
2023-05-05T15:00:21.139Z,98514.91
2023-05-05T15:02:49.141Z,98512.69
2023-05-05T15:05:17.172Z,98511.38
2023-05-05T15:07:45.660Z,98497.44
2023-05-05T15:10:13.561Z,98503.38
2023-05-05T15:12:42.744Z,98505.97
2023-05-05T15:15:11.132Z,98499.56
2023-05-05T15:17:39.312Z,98505.16
2023-05-05T15:20:08.180Z,98498.66
2023-05-05T15:22:36.497Z,98499.31
2023-05-05T15:25:09.720Z,98505.16
2023-05-05T15:27:39.313Z,98502.53
2023-05-05T15:30:08.022Z,98503.66
2023-05-05T15:32:35.945Z,98496.41
2023-05-05T15:35:04.534Z,98499.63
2023-05-05T15:37:32.590Z,98486.09
2023-05-05T15:40:00.628Z,98482.09
2023-05-05T15:42:28.563Z,98486.31
2023-05-05T15:44:56.416Z,98486.63
2023-05-05T15:47:24.265Z,98482.09
2023-05-05T15:49:52.141Z,98492.47
2023-05-05T15:52:19.974Z,98483.34
2023-05-05T15:54:47.871Z,98488.00
2023-05-05T15:57:15.973Z,98489.47
2023-05-05T15:59:44.551Z,98480.28
2023-05-05T16:02:13.551Z,98471.28
2023-05-05T16:04:41.733Z,98472.09
2023-05-05T16:07:09.761Z,98461.75
2023-05-05T16:09:37.636Z,98470.97
2023-05-05T16:12:05.972Z,98471.72
2023-05-05T16:14:34.517Z,98464.13
2023-05-05T16:17:02.503Z,98468.16
2023-05-05T16:19:31.184Z,98457.41
2023-05-05T16:21:59.054Z,98466.56
2023-05-05T16:24:27.054Z,98467.03
2023-05-05T16:26:54.932Z,98449.50
2023-05-05T16:29:22.776Z,98453.84
2023-05-05T16:31:50.876Z,98455.78
2023-05-05T16:34:18.878Z,98455.09
2023-05-05T16:36:46.737Z,98449.06
2023-05-05T16:39:14.715Z,98445.06
2023-05-05T16:41:42.547Z,98448.72
2023-05-05T16:44:10.437Z,98432.47
2023-05-05T16:46:40.042Z,98439.47
2023-05-05T16:49:08.534Z,98433.06
2023-05-05T16:51:36.353Z,98444.16
2023-05-05T16:54:04.265Z,98440.94
2023-05-05T16:56:32.249Z,98442.63
2023-05-05T16:59:00.189Z,98443.91
2023-05-05T17:01:28.115Z,98439.13
2023-05-05T17:03:57.811Z,98427.66
2023-05-05T17:06:26.763Z,98436.72
2023-05-05T17:08:54.613Z,98430.38
2023-05-05T17:11:22.466Z,98430.44
2023-05-05T17:13:50.319Z,98430.75
2023-05-05T17:16:18.346Z,98432.84
2023-05-05T17:18:46.380Z,98428.06
2023-05-05T17:21:14.277Z,98428.50
2023-05-05T17:23:42.271Z,98431.34
2023-05-05T17:26:10.100Z,98424.59
2023-05-05T17:28:37.999Z,98422.28
2023-05-05T17:31:06.119Z,98427.53
2023-05-05T17:33:33.970Z,98424.41
2023-05-05T17:36:01.812Z,98419.63
2023-05-05T17:38:29.710Z,98410.84
2023-05-05T17:40:57.556Z,98417.22
2023-05-05T17:43:25.356Z,98409.69
2023-05-05T17:45:53.524Z,98421.22
2023-05-05T17:48:21.409Z,98421.16
2023-05-05T17:50:49.472Z,98422.84
2023-05-05T17:53:17.788Z,98432.88
2023-05-05T17:55:46.059Z,98438.47
2023-05-05T17:58:13.932Z,98428.59
2023-05-05T18:00:41.848Z,98440.53
2023-05-05T18:03:09.895Z,98435.78
2023-05-05T18:05:37.869Z,98437.06
2023-05-05T18:08:06.332Z,98431.91
2023-05-05T18:10:34.171Z,98441.50
2023-05-05T18:13:02.433Z,98425.25
2023-05-05T18:15:30.430Z,98443.16
2023-05-05T18:17:58.572Z,98447.94
2023-05-05T18:20:26.453Z,98447.13
2023-05-05T18:22:54.605Z,98441.13
2023-05-05T18:25:22.580Z,98433.16
2023-05-05T18:27:50.486Z,98439.06
2023-05-05T18:30:18.459Z,98439.97
2023-05-05T18:32:46.354Z,98442.00
2023-05-05T18:35:14.314Z,98443.19
2023-05-05T18:37:42.422Z,98446.34
2023-05-05T18:40:10.634Z,98447.94
2023-05-05T18:42:38.600Z,98444.78
2023-05-05T18:45:07.989Z,98442.03
2023-05-05T18:47:37.499Z,98442.84
2023-05-05T18:50:06.617Z,98437.25
2023-05-05T18:52:34.565Z,98437.69
2023-05-05T18:55:02.552Z,98446.88
2023-05-05T18:57:30.819Z,98434.91
2023-05-05T18:59:59.267Z,98436.88
2023-05-05T19:02:27.861Z,98432.88
2023-05-05T19:04:56.629Z,98442.84
2023-05-05T19:07:34.932Z,98428.88
2023-05-05T19:10:07.044Z,98425.72
2023-05-05T19:12:37.416Z,98431.34
2023-05-05T19:15:07.202Z,98427.78
2023-05-05T19:17:36.071Z,98429.34
2023-05-05T19:20:05.111Z,98415.81
2023-05-05T19:22:33.128Z,98417.41
2023-05-05T19:25:01.016Z,98419.84
2023-05-05T19:27:28.937Z,98413.84
2023-05-05T19:29:56.985Z,98405.91
2023-05-05T19:32:25.538Z,98411.50
2023-05-05T19:34:56.548Z,98417.88
2023-05-05T19:37:24.663Z,98405.13
2023-05-05T19:39:52.812Z,98405.94
2023-05-05T19:42:20.675Z,98419.88
2023-05-05T19:44:48.487Z,98431.41
2023-05-05T19:47:16.404Z,98427.81
2023-05-05T19:49:44.238Z,98434.19
2023-05-05T19:52:12.397Z,98431.41
2023-05-05T19:54:40.346Z,98431.78
2023-05-05T19:57:08.509Z,98434.56
2023-05-05T19:59:36.440Z,98436.56
2023-05-05T20:02:04.378Z,98433.38
2023-05-05T20:04:32.254Z,98428.97
2023-05-05T20:07:00.198Z,98431.34
2023-05-05T20:09:28.027Z,98428.53
2023-05-05T20:11:58.088Z,98448.00
2023-05-05T20:14:26.075Z,98436.88
2023-05-05T20:16:54.043Z,98441.66
2023-05-05T20:19:21.871Z,98444.81
2023-05-05T20:21:49.701Z,98439.66
2023-05-05T20:24:17.683Z,98445.22
2023-05-05T20:26:45.687Z,98438.50
2023-05-05T20:29:15.200Z,98444.84
2023-05-05T20:31:43.177Z,98448.78
2023-05-05T20:34:11.175Z,98440.81
2023-05-05T20:36:39.247Z,98440.81
2023-05-05T20:39:07.606Z,98433.66
2023-05-05T20:41:36.226Z,98432.09
2023-05-05T20:44:04.280Z,98430.47
2023-05-05T20:46:33.047Z,98421.75
2023-05-05T20:49:00.933Z,98422.50
2023-05-05T20:51:31.595Z,98421.72
2023-05-05T20:53:59.852Z,98420.13
2023-05-05T20:56:27.746Z,98418.50
2023-05-05T20:58:56.792Z,98423.66
2023-05-05T21:01:25.162Z,98421.66
2023-05-05T21:04:07.016Z,98417.28
2023-05-05T21:06:35.003Z,98407.72
2023-05-05T21:09:02.827Z,98412.53
2023-05-05T21:11:30.715Z,98404.19
2023-05-05T21:13:58.549Z,98404.94
2023-05-05T21:16:26.476Z,98404.56
2023-05-05T21:18:54.331Z,98416.44
2023-05-05T21:21:23.866Z,98416.41
2023-05-05T21:23:51.958Z,98406.06
2023-05-05T21:26:19.774Z,98412.81
2023-05-05T21:28:47.609Z,98402.47
2023-05-05T21:33:46.443Z,98414.75
2023-05-05T21:36:18.976Z,98406.41
2023-05-05T21:38:47.090Z,98411.94
2023-05-05T21:41:14.942Z,98402.06
2023-05-05T21:43:42.841Z,98405.97
2023-05-05T21:46:10.800Z,98402.31
2023-05-05T21:48:41.716Z,98401.22
2023-05-05T21:51:09.687Z,98407.94
2023-05-05T21:53:37.904Z,98402.38
2023-05-05T21:56:09.384Z,98412.25
2023-05-05T21:58:37.428Z,98414.25
2023-05-05T22:01:05.356Z,98403.53
2023-05-05T22:03:34.389Z,98414.28
2023-05-05T22:06:02.787Z,98425.31
2023-05-05T22:08:30.827Z,98424.50
2023-05-05T22:10:58.637Z,98441.97
2023-05-05T22:13:26.717Z,98511.75
2023-05-05T22:15:54.660Z,98592.66
2023-05-05T22:18:22.534Z,98599.19
2023-05-05T22:20:51.421Z,98613.22
2023-05-05T22:23:19.316Z,98610.91
2023-05-05T22:25:47.153Z,98626.03
2023-05-05T22:28:15.020Z,98632.00
2023-05-05T22:30:43.040Z,98621.75
2023-05-05T22:33:10.919Z,98647.94
2023-05-05T22:35:39.783Z,98620.88
2023-05-05T22:38:07.848Z,98641.38
2023-05-05T22:40:35.932Z,98652.69
2023-05-05T22:43:03.966Z,98648.19
2023-05-05T22:45:31.798Z,98655.53
2023-05-05T22:47:59.777Z,98655.28
2023-05-05T22:50:27.764Z,98640.25
2023-05-05T22:52:56.946Z,98652.16
2023-05-05T22:55:24.921Z,98656.59
2023-05-05T22:57:52.807Z,98655.44
2023-05-05T23:00:20.682Z,98652.19
2023-05-05T23:02:49.016Z,98669.56
2023-05-05T23:05:17.075Z,98658.09
2023-05-05T23:07:44.962Z,98661.72
2023-05-05T23:10:12.784Z,98663.91
2023-05-05T23:12:40.886Z,98657.16
2023-05-05T23:15:09.994Z,98662.88
2023-05-05T23:17:38.885Z,98648.34
2023-05-05T23:20:09.797Z,98655.78
2023-05-05T23:22:37.715Z,98659.78
2023-05-05T23:25:05.918Z,98662.94
2023-05-05T23:27:33.746Z,98667.41
2023-05-05T23:30:01.544Z,98651.84
2023-05-05T23:32:29.420Z,98655.34
2023-05-05T23:34:57.334Z,98667.13
2023-05-05T23:37:25.654Z,98663.16
2023-05-05T23:39:53.711Z,98663.91
2023-05-05T23:42:21.589Z,98657.31
2023-05-05T23:44:49.429Z,98641.91
2023-05-05T23:47:17.314Z,98643.47
2023-05-05T23:49:45.173Z,98647.78
2023-05-05T23:52:13.004Z,98642.69
2023-05-05T23:54:41.422Z,98654.66
2023-05-05T23:57:09.320Z,98651.44
2023-05-05T23:59:37.138Z,98652.22
